createdAt,value
2019-01-11T00:02:21.488Z,2.50
2019-01-11T00:04:50.858Z,3.30
2019-01-11T00:07:20.210Z,3.10
2019-01-11T00:09:49.578Z,3.90
2019-01-11T00:12:18.923Z,3.30
2019-01-11T00:14:48.262Z,3.50
2019-01-11T00:17:17.659Z,3.85
2019-01-11T00:19:47.000Z,3.60
2019-01-11T00:22:16.353Z,3.62
2019-01-11T00:24:45.618Z,3.30
2019-01-11T00:27:14.982Z,3.60
2019-01-11T00:29:44.320Z,3.25
2019-01-11T00:32:13.686Z,3.05
2019-01-11T00:34:43.027Z,3.40
2019-01-11T00:37:12.395Z,2.83
2019-01-11T00:39:41.734Z,2.30
2019-01-11T00:42:11.105Z,2.67
2019-01-11T00:44:40.438Z,2.77
2019-01-11T00:47:09.811Z,3.98
2019-01-11T00:49:39.146Z,3.37
2019-01-11T00:52:08.561Z,3.67
2019-01-11T00:54:37.903Z,3.67
2019-01-11T00:57:07.258Z,2.92
2019-01-11T00:59:36.603Z,3.02
2019-01-11T01:02:06.170Z,3.50
2019-01-11T01:04:35.511Z,3.17
2019-01-11T01:07:05.002Z,2.80
2019-01-11T01:09:34.351Z,3.58
2019-01-11T01:12:04.014Z,3.85
2019-01-11T01:14:33.365Z,4.45
2019-01-11T01:17:02.747Z,3.80
2019-01-11T01:19:32.089Z,4.00
2019-01-11T01:22:01.459Z,3.55
2019-01-11T01:24:30.802Z,3.62
2019-01-11T01:27:00.177Z,4.30
2019-01-11T01:29:29.523Z,3.70
2019-01-11T01:31:58.870Z,3.50
2019-01-11T01:34:28.287Z,3.65
2019-01-11T01:36:57.635Z,3.52
2019-01-11T01:39:27.002Z,3.05
2019-01-11T01:41:56.350Z,2.60
2019-01-11T01:44:25.786Z,3.55
2019-01-11T01:46:55.126Z,4.78
2019-01-11T01:49:26.692Z,3.83
2019-01-11T01:51:55.493Z,3.80
2019-01-11T01:54:24.856Z,4.42
2019-01-11T01:56:54.199Z,4.33
2019-01-11T01:59:23.562Z,4.37
2019-01-11T02:01:52.902Z,4.55
2019-01-11T02:04:22.358Z,4.80
2019-01-11T02:06:51.667Z,3.60
2019-01-11T02:09:21.030Z,3.98
2019-01-11T02:11:50.383Z,3.80
2019-01-11T02:14:19.748Z,4.35
2019-01-11T02:16:49.114Z,5.10
2019-01-11T02:19:18.487Z,4.45
2019-01-11T02:21:47.832Z,4.33
2019-01-11T02:24:17.194Z,4.60
2019-01-11T02:26:46.531Z,4.60
2019-01-11T02:29:15.902Z,5.67
2019-01-11T02:31:45.224Z,5.53
2019-01-11T02:34:14.587Z,5.85
2019-01-11T02:36:43.914Z,4.75
2019-01-11T02:39:13.275Z,4.47
2019-01-11T02:41:42.602Z,4.60
2019-01-11T02:44:11.993Z,4.90
2019-01-11T02:46:41.320Z,4.35
2019-01-11T02:49:10.682Z,4.90
2019-01-11T02:51:40.009Z,4.12
2019-01-11T02:54:09.385Z,3.35
2019-01-11T02:56:38.710Z,4.25
2019-01-11T02:59:08.030Z,4.22
2019-01-11T03:01:37.380Z,4.08
2019-01-11T03:04:06.712Z,4.03
2019-01-11T03:06:36.055Z,3.72
2019-01-11T03:09:07.234Z,3.37
2019-01-11T03:11:36.587Z,3.67
2019-01-11T03:14:05.915Z,4.47
2019-01-11T03:16:35.291Z,5.10
2019-01-11T03:19:04.647Z,4.83
2019-01-11T03:21:33.996Z,4.05
2019-01-11T03:24:03.320Z,3.80
2019-01-11T03:26:32.666Z,5.15
2019-01-11T03:29:02.029Z,4.45
2019-01-11T03:31:37.364Z,4.55
2019-01-11T03:34:06.714Z,4.58
2019-01-11T03:36:36.081Z,5.53
2019-01-11T03:39:08.111Z,5.00
2019-01-11T03:41:50.040Z,5.60
2019-01-11T03:44:19.394Z,5.50
2019-01-11T03:46:48.814Z,4.92
2019-01-11T03:49:18.211Z,5.37
2019-01-11T03:51:47.570Z,6.92
2019-01-11T03:54:16.914Z,4.37
2019-01-11T03:56:46.284Z,5.35
2019-01-11T03:59:15.628Z,5.25
2019-01-11T04:01:44.985Z,6.70
2019-01-11T04:04:14.333Z,5.37
2019-01-11T04:06:43.753Z,6.15
2019-01-11T04:09:13.091Z,6.33
2019-01-11T04:11:42.457Z,5.42
2019-01-11T04:14:11.827Z,5.62
2019-01-11T04:16:41.186Z,5.90
2019-01-11T04:19:14.823Z,5.28
2019-01-11T04:22:01.728Z,5.03
2019-01-11T04:24:32.661Z,6.60
2019-01-11T04:27:01.996Z,5.40
2019-01-11T04:29:31.334Z,5.17
2019-01-11T04:32:00.673Z,4.90
2019-01-11T04:34:30.523Z,5.15
2019-01-11T04:36:59.869Z,6.10
2019-01-11T04:39:29.203Z,6.03
2019-01-11T04:41:58.545Z,5.50
2019-01-11T04:44:27.963Z,5.25
2019-01-11T04:46:57.311Z,5.70
2019-01-11T04:49:26.662Z,6.80
2019-01-11T04:51:55.996Z,5.95
2019-01-11T04:54:25.351Z,6.33
2019-01-11T04:56:54.715Z,6.45
2019-01-11T04:59:24.074Z,7.33
2019-01-11T05:01:53.411Z,7.45
2019-01-11T05:04:22.758Z,6.65
2019-01-11T05:06:52.095Z,6.45
2019-01-11T05:09:21.458Z,5.85
2019-01-11T05:11:50.783Z,7.47
2019-01-11T05:14:20.138Z,6.92
2019-01-11T05:16:49.474Z,8.60
2019-01-11T05:19:18.822Z,6.78
2019-01-11T05:21:48.155Z,7.33
2019-01-11T05:24:17.502Z,7.40
2019-01-11T05:26:46.826Z,6.60
2019-01-11T05:29:16.184Z,7.33
2019-01-11T05:31:46.411Z,7.10
2019-01-11T05:34:15.778Z,9.00
2019-01-11T05:36:45.115Z,10.25
2019-01-11T05:39:14.445Z,21.02
2019-01-11T05:41:43.798Z,8.50
2019-01-11T05:44:13.127Z,7.40
2019-01-11T05:46:42.479Z,7.05
2019-01-11T05:49:11.806Z,7.28
2019-01-11T05:51:41.164Z,8.68
2019-01-11T05:54:10.496Z,7.85
2019-01-11T05:56:39.839Z,8.35
2019-01-11T05:59:09.653Z,7.97
2019-01-11T06:01:39.067Z,7.00
2019-01-11T06:04:30.107Z,7.85
2019-01-11T06:07:13.222Z,7.20
2019-01-11T06:09:42.555Z,8.10
2019-01-11T06:12:11.903Z,8.25
2019-01-11T06:14:41.231Z,6.90
2019-01-11T06:17:10.608Z,8.55
2019-01-11T06:19:39.962Z,8.33
2019-01-11T06:22:09.347Z,7.92
2019-01-11T06:24:38.671Z,8.08
2019-01-11T06:27:08.243Z,7.28
2019-01-11T06:29:37.579Z,7.67
2019-01-11T06:32:06.938Z,8.05
2019-01-11T06:34:36.266Z,6.70
2019-01-11T06:37:05.625Z,8.68
2019-01-11T06:39:34.977Z,8.05
2019-01-11T06:42:25.906Z,7.85
2019-01-11T06:44:55.799Z,9.18
2019-01-11T06:47:25.159Z,7.15
2019-01-11T06:49:54.483Z,7.60
2019-01-11T06:52:23.831Z,7.83
2019-01-11T06:54:53.166Z,8.38
2019-01-11T06:57:22.524Z,8.20
2019-01-11T06:59:51.838Z,7.72
2019-01-11T07:02:22.365Z,8.20
2019-01-11T07:04:51.759Z,8.43
2019-01-11T07:07:21.115Z,8.40
2019-01-11T07:09:50.446Z,8.33
2019-01-11T07:12:19.970Z,10.08
2019-01-11T07:14:49.298Z,10.88
2019-01-11T07:17:18.614Z,9.75
2019-01-11T07:19:48.371Z,9.48
2019-01-11T07:22:17.707Z,7.92
2019-01-11T07:24:47.221Z,10.10
2019-01-11T07:27:16.506Z,9.90
2019-01-11T07:29:46.013Z,9.65
2019-01-11T07:32:15.339Z,11.12
2019-01-11T07:34:44.700Z,9.60
2019-01-11T07:37:14.046Z,10.40
2019-01-11T07:39:43.403Z,11.73
2019-01-11T07:42:12.743Z,9.65
2019-01-11T07:44:42.095Z,11.25
2019-01-11T07:47:11.423Z,11.28
2019-01-11T07:49:40.779Z,11.70
2019-01-11T07:52:10.210Z,10.43
2019-01-11T07:54:39.568Z,10.30
2019-01-11T07:57:08.899Z,10.43
2019-01-11T07:59:38.259Z,11.30
2019-01-11T08:02:07.718Z,11.22
2019-01-11T08:04:38.558Z,10.60
2019-01-11T08:07:07.875Z,12.18
2019-01-11T08:09:37.377Z,11.60
2019-01-11T08:12:06.765Z,9.75
2019-01-11T08:14:36.127Z,10.50
2019-01-11T08:17:05.486Z,11.12
2019-01-11T08:19:34.840Z,11.63
2019-01-11T08:22:04.383Z,11.12
2019-01-11T08:24:33.770Z,10.53
2019-01-11T08:27:03.107Z,11.93
2019-01-11T08:29:32.477Z,11.60
2019-01-11T08:32:01.814Z,11.03
2019-01-11T08:34:31.291Z,12.50
2019-01-11T08:37:00.635Z,12.58
2019-01-11T08:39:32.539Z,11.78
2019-01-11T08:42:00.967Z,12.93
2019-01-11T08:44:30.312Z,10.55
2019-01-11T08:46:59.663Z,10.72
2019-01-11T08:49:29.027Z,10.82
2019-01-11T08:51:58.379Z,10.65
2019-01-11T08:54:27.718Z,12.15
2019-01-11T08:56:57.059Z,11.45
2019-01-11T08:59:26.399Z,12.45
2019-01-11T09:01:55.764Z,11.08
2019-01-11T09:04:25.111Z,10.55
2019-01-11T09:06:54.471Z,10.63
2019-01-11T09:09:23.818Z,11.10
2019-01-11T09:11:53.328Z,11.10
2019-01-11T09:14:41.667Z,10.85
2019-01-11T09:17:10.994Z,11.55
2019-01-11T09:19:40.335Z,11.20
2019-01-11T09:22:09.755Z,11.50
2019-01-11T09:24:39.090Z,11.45
2019-01-11T09:27:08.450Z,10.53
2019-01-11T09:29:37.786Z,10.13
2019-01-11T09:32:07.139Z,11.08
2019-01-11T09:34:36.479Z,11.45
2019-01-11T09:37:05.931Z,12.45
2019-01-11T09:39:35.266Z,11.85
2019-01-11T09:42:04.631Z,10.90
2019-01-11T09:44:33.973Z,11.38
2019-01-11T09:47:03.338Z,10.08
2019-01-11T09:49:32.670Z,10.25
2019-01-11T09:52:02.137Z,10.48
2019-01-11T09:54:31.471Z,10.58
2019-01-11T09:57:00.882Z,10.28
2019-01-11T09:59:35.068Z,10.98
2019-01-11T10:02:18.103Z,11.08
2019-01-11T10:04:47.443Z,11.03
2019-01-11T10:07:28.938Z,11.35
2019-01-11T10:09:58.265Z,9.73
2019-01-11T10:12:28.535Z,11.08
2019-01-11T10:14:57.908Z,11.45
2019-01-11T10:17:27.258Z,11.20
2019-01-11T10:19:56.606Z,12.03
2019-01-11T10:22:25.934Z,10.93
2019-01-11T10:24:55.441Z,11.65
2019-01-11T10:27:24.774Z,11.12
2019-01-11T10:29:54.131Z,11.38
2019-01-11T10:32:23.469Z,10.60
2019-01-11T10:34:52.820Z,8.98
2019-01-11T10:37:22.167Z,9.33
2019-01-11T10:39:51.525Z,10.90
2019-01-11T10:42:20.873Z,11.50
2019-01-11T10:44:50.219Z,11.73
2019-01-11T10:47:19.559Z,10.00
2019-01-11T10:49:49.048Z,10.80
2019-01-11T10:52:18.475Z,10.32
2019-01-11T10:54:48.041Z,10.93
2019-01-11T10:57:17.406Z,10.68
2019-01-11T10:59:46.772Z,12.15
2019-01-11T11:02:16.110Z,10.60
2019-01-11T11:04:45.515Z,11.75
2019-01-11T11:07:15.791Z,12.03
2019-01-11T11:09:45.148Z,10.35
2019-01-11T11:12:14.479Z,12.37
2019-01-11T11:14:43.844Z,11.57
2019-01-11T11:17:13.242Z,10.58
2019-01-11T11:19:42.610Z,11.08
2019-01-11T11:22:11.987Z,10.95
2019-01-11T11:24:41.347Z,9.88
2019-01-11T11:27:10.674Z,12.13
2019-01-11T11:29:40.036Z,11.75
2019-01-11T11:32:09.671Z,12.23
2019-01-11T11:34:42.443Z,11.18
2019-01-11T11:37:13.351Z,10.65
2019-01-11T11:39:42.711Z,12.45
2019-01-11T11:42:12.043Z,11.30
2019-01-11T11:44:41.422Z,11.25
2019-01-11T11:47:10.750Z,12.45
2019-01-11T11:49:40.103Z,11.43
2019-01-11T11:52:09.460Z,11.40
2019-01-11T11:54:38.790Z,10.65
2019-01-11T11:57:08.150Z,10.63
2019-01-11T11:59:37.487Z,11.18
2019-01-11T12:02:07.039Z,9.68
2019-01-11T12:04:36.367Z,12.00
2019-01-11T12:07:07.687Z,11.05
2019-01-11T12:09:36.738Z,11.20
2019-01-11T12:12:06.092Z,9.58
2019-01-11T12:14:35.431Z,10.90
2019-01-11T12:17:04.819Z,11.25
2019-01-11T12:19:34.167Z,10.75
2019-01-11T12:22:03.531Z,11.12
2019-01-11T12:24:33.054Z,9.30
2019-01-11T12:27:02.808Z,11.90
2019-01-11T12:29:32.383Z,11.65
2019-01-11T12:32:01.739Z,11.50
2019-01-11T12:34:31.126Z,11.68
2019-01-11T12:37:00.490Z,10.13
2019-01-11T12:39:29.831Z,11.97
2019-01-11T12:41:59.192Z,10.55
2019-01-11T12:44:28.519Z,10.20
2019-01-11T12:46:57.874Z,10.58
2019-01-11T12:49:27.220Z,9.95
2019-01-11T12:51:56.595Z,9.78
2019-01-11T12:54:25.932Z,11.08
2019-01-11T12:56:55.360Z,10.40
2019-01-11T12:59:24.687Z,9.63
2019-01-11T13:01:54.023Z,11.70
2019-01-11T13:04:23.382Z,10.18
2019-01-11T13:06:52.719Z,10.78
2019-01-11T13:09:22.079Z,9.85
2019-01-11T13:11:51.419Z,10.43
2019-01-11T13:14:20.820Z,12.35
2019-01-11T13:16:50.183Z,10.45
2019-01-11T13:19:19.542Z,11.60
2019-01-11T13:21:48.879Z,10.93
2019-01-11T13:24:18.335Z,9.88
2019-01-11T13:26:47.666Z,8.65
2019-01-11T13:29:17.025Z,10.40
2019-01-11T13:31:46.350Z,10.58
2019-01-11T13:34:15.730Z,10.08
2019-01-11T13:36:45.074Z,9.80
2019-01-11T13:39:14.426Z,8.75
2019-01-11T13:41:43.759Z,8.13
2019-01-11T13:44:13.226Z,9.40
2019-01-11T13:46:42.576Z,7.47
2019-01-11T13:49:11.928Z,9.73
2019-01-11T13:51:41.284Z,8.28
2019-01-11T13:54:10.759Z,7.53
2019-01-11T13:56:40.119Z,9.20
2019-01-11T13:59:09.506Z,8.50
2019-01-11T14:01:38.871Z,8.80
2019-01-11T14:04:08.243Z,13.75
2019-01-11T14:06:37.579Z,8.98
2019-01-11T14:09:08.711Z,9.90
2019-01-11T14:11:38.095Z,8.58
2019-01-11T14:14:07.474Z,8.25
2019-01-11T14:16:36.843Z,10.30
2019-01-11T14:19:06.220Z,10.35
2019-01-11T14:21:35.555Z,10.35
2019-01-11T14:24:04.948Z,9.78
2019-01-11T14:26:34.275Z,9.43
2019-01-11T14:29:03.715Z,10.38
2019-01-11T14:31:33.098Z,13.50
2019-01-11T14:34:02.443Z,9.65
2019-01-11T14:36:31.794Z,9.60
2019-01-11T14:39:01.131Z,9.88
2019-01-11T14:41:30.683Z,9.73
2019-01-11T14:44:00.109Z,8.48
2019-01-11T14:46:29.468Z,9.05
2019-01-11T14:48:58.802Z,9.63
2019-01-11T14:51:28.211Z,7.95
2019-01-11T14:53:57.569Z,9.00
2019-01-11T14:56:27.681Z,8.55
2019-01-11T14:58:57.065Z,6.50
2019-01-11T15:01:26.415Z,6.78
2019-01-11T15:03:55.751Z,7.42
2019-01-11T15:06:25.111Z,7.50
2019-01-11T15:08:54.438Z,6.58
2019-01-11T15:11:23.798Z,7.95
2019-01-11T15:13:53.143Z,8.93
2019-01-11T15:16:22.522Z,9.15
2019-01-11T15:18:51.913Z,8.13
2019-01-11T15:21:21.270Z,9.45
2019-01-11T15:23:50.603Z,8.88
2019-01-11T15:26:19.966Z,8.65
2019-01-11T15:28:49.349Z,8.45
2019-01-11T15:31:18.706Z,9.30
2019-01-11T15:33:48.063Z,10.75
2019-01-11T15:36:18.043Z,9.78
2019-01-11T15:38:47.379Z,9.03
2019-01-11T15:41:16.771Z,9.68
2019-01-11T15:43:46.099Z,8.55
2019-01-11T15:46:15.447Z,8.70
2019-01-11T15:48:46.818Z,10.13
2019-01-11T15:51:18.011Z,10.25
2019-01-11T15:53:47.339Z,9.28
2019-01-11T15:56:22.810Z,9.30
2019-01-11T15:58:52.230Z,9.85
2019-01-11T16:01:21.673Z,11.40
2019-01-11T16:03:51.018Z,12.95
2019-01-11T16:06:28.427Z,11.10
2019-01-11T16:10:04.275Z,9.60
2019-01-11T16:13:06.011Z,9.63
2019-01-11T16:15:49.679Z,9.43
2019-01-11T16:18:25.083Z,10.38
2019-01-11T16:20:54.417Z,10.75
2019-01-11T16:23:23.779Z,10.58
2019-01-11T16:25:53.136Z,10.98
2019-01-11T16:28:22.515Z,11.05
2019-01-11T16:30:51.864Z,11.00
2019-01-11T16:33:21.244Z,10.23
2019-01-11T16:35:50.603Z,11.53
2019-01-11T16:38:19.964Z,11.15
2019-01-11T16:40:49.367Z,10.43
2019-01-11T16:43:18.871Z,11.12
2019-01-11T16:45:48.215Z,12.05
2019-01-11T16:48:17.603Z,10.90
2019-01-11T16:50:46.943Z,10.18
2019-01-11T16:53:16.286Z,11.05
2019-01-11T16:55:46.548Z,10.63
2019-01-11T16:58:15.897Z,10.25
2019-01-11T17:00:45.256Z,11.40
2019-01-11T17:03:14.595Z,9.88
2019-01-11T17:05:43.955Z,9.10
2019-01-11T17:08:13.310Z,9.40
2019-01-11T17:10:42.674Z,10.93
2019-01-11T17:13:11.999Z,9.73
2019-01-11T17:15:41.362Z,10.08
2019-01-11T17:18:10.740Z,11.03
2019-01-11T17:20:40.154Z,12.28
2019-01-11T17:23:09.502Z,10.70
2019-01-11T17:25:38.911Z,11.43
2019-01-11T17:28:08.272Z,11.15
2019-01-11T17:30:37.627Z,9.25
2019-01-11T17:33:06.968Z,11.68
2019-01-11T17:35:36.427Z,9.00
2019-01-11T17:38:05.879Z,10.72
2019-01-11T17:40:35.240Z,10.58
2019-01-11T17:43:04.578Z,10.05
2019-01-11T17:45:33.922Z,9.68
2019-01-11T17:48:03.256Z,9.00
2019-01-11T17:50:32.619Z,8.53
2019-01-11T17:53:01.949Z,9.48
2019-01-11T17:55:31.315Z,8.60
2019-01-11T17:58:00.646Z,8.13
2019-01-11T18:00:29.975Z,8.53
2019-01-11T18:02:59.438Z,8.90
2019-01-11T18:05:28.771Z,9.23
2019-01-11T18:07:59.469Z,8.38
2019-01-11T18:10:28.958Z,7.70
2019-01-11T18:12:58.311Z,9.65
2019-01-11T18:15:27.655Z,10.25
2019-01-11T18:17:57.030Z,9.15
2019-01-11T18:20:28.267Z,8.80
2019-01-11T18:22:57.627Z,7.95
2019-01-11T18:25:26.965Z,8.90
2019-01-11T18:27:56.314Z,7.80
2019-01-11T18:30:25.650Z,8.80
2019-01-11T18:32:55.003Z,9.25
2019-01-11T18:35:24.342Z,9.13
2019-01-11T18:37:53.699Z,8.28
2019-01-11T18:40:24.642Z,7.35
2019-01-11T18:42:54.028Z,6.90
2019-01-11T18:45:28.622Z,7.70
2019-01-11T18:47:54.363Z,6.90
2019-01-11T18:50:24.084Z,9.60
2019-01-11T18:52:53.439Z,8.08
2019-01-11T18:55:22.790Z,7.45
2019-01-11T18:57:52.154Z,7.83
2019-01-11T19:00:22.895Z,8.03
2019-01-11T19:02:52.251Z,7.83
2019-01-11T19:05:21.575Z,9.18
2019-01-11T19:07:51.050Z,10.65
2019-01-11T19:10:20.730Z,7.37
2019-01-11T19:12:50.090Z,7.00
2019-01-11T19:15:21.875Z,6.00
2019-01-11T19:17:51.255Z,11.83
2019-01-11T19:20:25.467Z,13.43
2019-01-11T19:22:54.819Z,6.67
2019-01-11T19:25:24.235Z,10.50
2019-01-11T19:27:53.575Z,6.03
2019-01-11T19:30:25.000Z,7.75
2019-01-11T19:32:54.330Z,6.67
2019-01-11T19:35:23.695Z,6.90
2019-01-11T19:37:53.035Z,7.50
2019-01-11T19:40:22.406Z,6.37
2019-01-11T19:42:51.734Z,6.50
2019-01-11T19:45:21.099Z,6.45
2019-01-11T19:47:50.427Z,5.70
2019-01-11T19:50:24.056Z,6.60
2019-01-11T19:52:53.382Z,5.80
2019-01-11T19:55:22.734Z,6.10
2019-01-11T19:57:51.996Z,6.30
2019-01-11T20:00:23.608Z,6.45
2019-01-11T20:02:52.937Z,6.47
2019-01-11T20:05:22.696Z,6.47
2019-01-11T20:07:52.021Z,7.08
2019-01-11T20:10:23.672Z,7.80
2019-01-11T20:12:53.010Z,6.87
2019-01-11T20:15:22.458Z,8.83
2019-01-11T20:17:51.927Z,8.65
2019-01-11T20:20:21.278Z,8.33
2019-01-11T20:22:50.619Z,9.25
2019-01-11T20:25:21.449Z,8.98
2019-01-11T20:27:51.176Z,8.80
2019-01-11T20:30:25.581Z,8.80
2019-01-11T20:32:55.199Z,7.70
2019-01-11T20:35:24.745Z,9.13
2019-01-11T20:37:54.373Z,8.83
2019-01-11T20:40:24.021Z,11.48
2019-01-11T20:42:53.341Z,18.98
2019-01-11T20:45:23.018Z,10.68
2019-01-11T20:47:52.774Z,9.25
2019-01-11T20:50:28.349Z,10.50
2019-01-11T20:52:57.827Z,14.35
2019-01-11T20:55:27.268Z,15.88
2019-01-11T20:57:56.866Z,13.20
2019-01-11T21:00:35.108Z,9.68
2019-01-11T21:03:06.759Z,7.62
2019-01-11T21:05:36.196Z,7.22
2019-01-11T21:08:05.722Z,7.80
2019-01-11T21:10:35.035Z,7.85
2019-01-11T21:13:04.694Z,8.15
2019-01-11T21:15:34.025Z,8.80
2019-01-11T21:18:03.810Z,9.00
2019-01-11T21:20:33.136Z,9.00
2019-01-11T21:23:02.490Z,9.30
2019-01-11T21:25:31.856Z,8.80
2019-01-11T21:28:01.227Z,10.08
2019-01-11T21:30:31.675Z,9.60
2019-01-11T21:33:01.224Z,11.45
2019-01-11T21:35:30.666Z,9.98
2019-01-11T21:38:00.029Z,9.60
2019-01-11T21:40:29.363Z,10.65
2019-01-11T21:42:58.823Z,10.05
2019-01-11T21:45:28.212Z,8.57
2019-01-11T21:47:57.513Z,10.70
2019-01-11T21:50:29.073Z,9.70
2019-01-11T21:52:58.932Z,11.37
2019-01-11T21:55:28.252Z,11.77
2019-01-11T21:57:59.088Z,11.00
2019-01-11T22:00:34.211Z,9.20
2019-01-11T22:03:03.596Z,10.13
2019-01-11T22:05:32.930Z,9.75
2019-01-11T22:08:02.283Z,10.17
2019-01-11T22:10:31.611Z,9.33
2019-01-11T22:13:00.982Z,9.70
2019-01-11T22:15:30.322Z,9.95
2019-01-11T22:17:59.674Z,8.93
2019-01-11T22:20:29.124Z,9.48
2019-01-11T22:22:58.462Z,7.62
2019-01-11T22:25:27.822Z,7.80
2019-01-11T22:27:57.141Z,7.30
2019-01-11T22:30:30.461Z,8.05
2019-01-11T22:32:57.493Z,7.72
2019-01-11T22:35:26.843Z,7.30
2019-01-11T22:37:56.167Z,9.10
2019-01-11T22:40:25.527Z,10.10
2019-01-11T22:42:57.191Z,8.50
2019-01-11T22:45:26.612Z,17.90
2019-01-11T22:47:55.960Z,10.20
2019-01-11T22:50:25.430Z,8.47
2019-01-11T22:52:54.768Z,7.23
2019-01-11T22:55:24.123Z,7.80
2019-01-11T22:57:53.455Z,7.27
2019-01-11T23:00:55.543Z,6.97
2019-01-11T23:03:28.211Z,8.73
2019-01-11T23:06:11.371Z,8.78
2019-01-11T23:08:40.702Z,8.80
2019-01-11T23:11:55.757Z,8.23
2019-01-11T23:14:25.093Z,9.20
2019-01-11T23:17:37.947Z,7.87
2019-01-11T23:20:09.687Z,10.47
2019-01-11T23:22:39.035Z,9.47
2019-01-11T23:25:08.377Z,10.17
2019-01-11T23:27:37.726Z,9.67
2019-01-11T23:30:10.955Z,7.80
2019-01-11T23:32:40.314Z,7.45
2019-01-11T23:35:09.651Z,8.93
2019-01-11T23:37:39.010Z,8.73
2019-01-11T23:40:10.186Z,9.47
2019-01-11T23:42:39.665Z,10.75
2019-01-11T23:45:10.030Z,8.50
2019-01-11T23:47:39.505Z,8.40
2019-01-11T23:50:11.796Z,8.17
2019-01-11T23:52:41.155Z,7.60
2019-01-11T23:55:10.702Z,7.10
2019-01-11T23:57:40.071Z,8.57
